Time;durP1;ratioP1;P1;durP2;ratioP2;P2;SDS_P1;SDS_P2;PMS_P1;PMS_P2;Temp;Humidity;BMP_temperature;BMP_pressure;BME280_temperature;BME280_humidity;BME280_pressure;Samples;Min_cycle;Max_cycle;Signal;HPM_P1;HPM_P2
2022/07/29 00:00:57;;;;;;;4.80;1.77;;;;;;;;;;5026553;28;20491;-73
2022/07/29 00:03:23;;;;;;;2.00;1.77;;;;;;;;;;5031642;28;20061;-73
2022/07/29 00:05:48;;;;;;;3.53;1.45;;;;;;;;;;5023327;28;20037;-73
2022/07/29 00:08:15;;;;;;;4.25;2.13;;;;;;;;;;5017123;28;20553;-73
2022/07/29 00:10:40;;;;;;;1.70;1.52;;;;;;;;;;5019609;28;20037;-73
2022/07/29 00:13:06;;;;;;;3.78;1.90;;;;;;;;;;5028159;28;20021;-73
2022/07/29 00:15:31;;;;;;;2.75;1.67;;;;;;;;;;5030609;28;20387;-73
2022/07/29 00:17:56;;;;;;;3.85;2.00;;;;;;;;;;5022947;28;20025;-73
2022/07/29 00:20:22;;;;;;;2.83;1.80;;;;;;;;;;5022099;28;20483;-73
2022/07/29 00:22:47;;;;;;;2.65;1.55;;;;;;;;;;5030861;28;20021;-73
2022/07/29 00:25:13;;;;;;;4.65;1.90;;;;;;;;;;5030783;28;20049;-73
2022/07/29 00:27:38;;;;;;;3.10;1.77;;;;;;;;;;5023084;28;20536;-73
2022/07/29 00:30:04;;;;;;;3.28;1.75;;;;;;;;;;5017887;28;20034;-73
2022/07/29 00:32:30;;;;;;;4.50;1.83;;;;;;;;;;5010917;28;20030;-73
2022/07/29 00:37:39;;;;;;;3.20;1.80;;;;;;;;;;5006661;28;20036;-73
2022/07/29 00:40:05;;;;;;;1.77;1.67;;;;;;;;;;4996174;28;20021;-73
2022/07/29 00:42:30;;;;;;;2.03;1.65;;;;;;;;;;5022378;28;20069;-73
2022/07/29 00:44:55;;;;;;;4.47;1.67;;;;;;;;;;5010652;28;20417;-74
2022/07/29 00:47:21;;;;;;;4.32;1.70;;;;;;;;;;5011915;28;20034;-72
2022/07/29 00:49:46;;;;;;;2.80;1.65;;;;;;;;;;5021905;28;20439;-73
2022/07/29 00:52:12;;;;;;;4.53;1.80;;;;;;;;;;5030571;28;20041;-72
2022/07/29 00:54:39;;;;;;;4.78;1.70;;;;;;;;;;5030318;28;20072;-73
2022/07/29 00:57:07;;;;;;;2.88;1.67;;;;;;;;;;5016387;28;20022;-73
2022/07/29 00:59:33;;;;;;;5.43;1.80;;;;;;;;;;5010419;28;20248;-74
2022/07/29 01:01:58;;;;;;;3.95;1.65;;;;;;;;;;5009812;28;20087;-72
2022/07/29 01:04:24;;;;;;;4.20;1.58;;;;;;;;;;5010494;28;20017;-73
2022/07/29 01:06:50;;;;;;;3.15;1.45;;;;;;;;;;5009501;28;20025;-73
2022/07/29 01:09:17;;;;;;;4.35;1.50;;;;;;;;;;5017511;28;20407;-74
2022/07/29 01:11:44;;;;;;;3.30;1.73;;;;;;;;;;5016722;28;20069;-73
2022/07/29 01:14:10;;;;;;;3.08;1.63;;;;;;;;;;5010309;28;20025;-74
2022/07/29 01:16:43;;;;;;;4.05;1.60;;;;;;;;;;5009295;28;20388;-73
2022/07/29 01:19:44;;;;;;;3.88;2.25;;;;;;;;;;5018601;28;20057;-73
2022/07/29 01:22:26;;;;;;;3.90;1.60;;;;;;;;;;5028205;28;20070;-74
2022/07/29 01:25:23;;;;;;;4.22;1.65;;;;;;;;;;4997508;28;20113;-74
2022/07/29 01:28:00;;;;;;;6.10;1.85;;;;;;;;;;5006292;28;20026;-73
2022/07/29 01:30:27;;;;;;;4.07;1.83;;;;;;;;;;5017866;28;20108;-73
2022/07/29 01:32:59;;;;;;;2.33;1.40;;;;;;;;;;5009804;28;20026;-73
2022/07/29 01:35:31;;;;;;;4.75;1.90;;;;;;;;;;5009475;28;20427;-73
2022/07/29 01:38:02;;;;;;;6.65;1.85;;;;;;;;;;5015874;28;20033;-73
2022/07/29 01:40:34;;;;;;;2.78;1.85;;;;;;;;;;5021033;28;20608;-73
2022/07/29 01:43:12;;;;;;;4.20;1.77;;;;;;;;;;5029639;28;20060;-73
2022/07/29 01:45:44;;;;;;;2.85;1.58;;;;;;;;;;5029202;28;20034;-73
2022/07/29 01:48:13;;;;;;;;;;;;;;;;;;5023266;28;20033;-73
2022/07/29 01:50:47;;;;;;;2.83;1.60;;;;;;;;;;5021838;28;19999;-73
2022/07/29 01:53:14;;;;;;;2.17;1.75;;;;;;;;;;5017527;28;20056;-73
2022/07/29 01:55:43;;;;;;;3.10;1.58;;;;;;;;;;5029192;28;20098;-73
2022/07/29 01:58:12;;;;;;;4.65;2.17;;;;;;;;;;5017405;28;20097;-73
2022/07/29 02:00:38;;;;;;;4.50;1.70;;;;;;;;;;5009268;28;20494;-73
2022/07/29 02:03:09;;;;;;;3.22;1.60;;;;;;;;;;5016845;28;20554;-73
2022/07/29 02:05:37;;;;;;;5.65;1.73;;;;;;;;;;4989754;28;20034;-72
2022/07/29 02:08:04;;;;;;;2.92;1.83;;;;;;;;;;4989818;28;20018;-72
2022/07/29 02:10:33;;;;;;;2.67;1.83;;;;;;;;;;4989337;28;20038;-73
2022/07/29 02:12:59;;;;;;;3.78;2.10;;;;;;;;;;5013679;28;20030;-73
2022/07/29 02:15:28;;;;;;;3.97;2.10;;;;;;;;;;5028014;28;20025;-73
2022/07/29 02:18:25;;;;;;;2.72;1.92;;;;;;;;;;5029231;28;20045;-73
2022/07/29 02:20:56;;;;;;;4.00;1.67;;;;;;;;;;4996308;28;20246;-73
2022/07/29 02:23:23;;;;;;;4.72;1.80;;;;;;;;;;5018508;28;20458;-73
2022/07/29 02:25:52;;;;;;;2.85;1.77;;;;;;;;;;5008975;28;20036;-72
2022/07/29 02:28:19;;;;;;;4.18;1.85;;;;;;;;;;4991407;28;20034;-73
2022/07/29 02:30:46;;;;;;;2.35;1.70;;;;;;;;;;5016237;28;20033;-73
2022/07/29 02:33:14;;;;;;;3.78;2.20;;;;;;;;;;5025953;28;20032;-73
2022/07/29 02:35:40;;;;;;;3.70;2.80;;;;;;;;;;5018418;28;20443;-73
2022/07/29 02:40:54;;;;;;;2.25;1.80;;;;;;;;;;5015637;28;20037;-73
2022/07/29 02:43:21;;;;;;;5.47;2.70;;;;;;;;;;5019018;28;20361;-73
2022/07/29 02:45:49;;;;;;;3.67;2.05;;;;;;;;;;5028358;28;20036;-73
2022/07/29 02:48:16;;;;;;;4.35;2.13;;;;;;;;;;5019311;28;20029;-73
2022/07/29 02:50:51;;;;;;;2.60;2.10;;;;;;;;;;5012127;28;20467;-73
2022/07/29 02:53:23;;;;;;;3.35;2.00;;;;;;;;;;5026385;28;20029;-73
2022/07/29 02:55:57;;;;;;;4.47;2.20;;;;;;;;;;5028215;28;20091;-73
2022/07/29 02:58:28;;;;;;;2.38;2.17;;;;;;;;;;5020603;28;20040;-73
2022/07/29 03:00:57;;;;;;;6.27;1.80;;;;;;;;;;5014943;28;20044;-73
2022/07/29 03:03:25;;;;;;;2.83;2.13;;;;;;;;;;5017690;28;20356;-73
2022/07/29 03:05:55;;;;;;;3.00;2.08;;;;;;;;;;5016054;28;20048;-73
2022/07/29 03:08:22;;;;;;;2.15;1.90;;;;;;;;;;5026922;28;20041;-73
2022/07/29 03:10:48;;;;;;;4.30;1.90;;;;;;;;;;5019709;28;20488;-73
2022/07/29 03:13:14;;;;;;;3.25;1.95;;;;;;;;;;5025612;28;20060;-73
2022/07/29 03:15:43;;;;;;;3.17;1.95;;;;;;;;;;5010520;28;20117;-73
2022/07/29 03:18:09;;;;;;;2.70;2.03;;;;;;;;;;5028214;28;20052;-73
2022/07/29 03:20:35;;;;;;;5.47;2.10;;;;;;;;;;5021103;28;20048;-73
2022/07/29 03:23:00;;;;;;;3.85;2.08;;;;;;;;;;5023986;28;20116;-73
2022/07/29 03:25:27;;;;;;;4.18;2.28;;;;;;;;;;5027902;28;20463;-73
2022/07/29 03:27:52;;;;;;;1.85;1.73;;;;;;;;;;5022945;28;20057;-73
2022/07/29 03:30:17;;;;;;;3.20;1.95;;;;;;;;;;5016951;28;20033;-73
2022/07/29 03:32:43;;;;;;;2.92;2.15;;;;;;;;;;5014804;28;20032;-73
2022/07/29 03:35:08;;;;;;;2.67;1.95;;;;;;;;;;5017746;28;20384;-73
2022/07/29 03:37:36;;;;;;;6.20;2.30;;;;;;;;;;5016221;28;20026;-73
2022/07/29 03:40:04;;;;;;;4.15;2.20;;;;;;;;;;5010770;28;20029;-73
2022/07/29 03:42:35;;;;;;;3.97;2.00;;;;;;;;;;5019511;28;20517;-73
2022/07/29 03:45:05;;;;;;;2.58;2.00;;;;;;;;;;5027963;28;20091;-73
2022/07/29 03:47:34;;;;;;;3.45;2.30;;;;;;;;;;5027934;28;20390;-73
2022/07/29 03:50:05;;;;;;;3.60;2.25;;;;;;;;;;5025999;28;20117;-72
2022/07/29 03:52:31;;;;;;;4.43;2.40;;;;;;;;;;5023441;28;20033;-72
2022/07/29 03:54:56;;;;;;;2.50;2.22;;;;;;;;;;5032019;28;20151;-73
2022/07/29 03:57:25;;;;;;;6.07;2.30;;;;;;;;;;5016473;28;20033;-73
2022/07/29 03:59:52;;;;;;;2.20;2.00;;;;;;;;;;5010809;28;20181;-73
2022/07/29 04:02:17;;;;;;;2.95;2.25;;;;;;;;;;5020711;28;20038;-73
2022/07/29 04:04:42;;;;;;;3.83;2.30;;;;;;;;;;5031413;28;20448;-73
2022/07/29 04:07:11;;;;;;;5.32;2.25;;;;;;;;;;5020309;28;20444;-73
2022/07/29 04:09:37;;;;;;;4.38;2.35;;;;;;;;;;5003930;28;20035;-73
2022/07/29 04:12:02;;;;;;;3.97;2.05;;;;;;;;;;5023123;28;20044;-73
2022/07/29 04:14:27;;;;;;;6.80;2.35;;;;;;;;;;5020004;28;20036;-73
2022/07/29 04:16:53;;;;;;;3.45;2.30;;;;;;;;;;5011448;28;20061;-73
2022/07/29 04:19:18;;;;;;;4.15;2.40;;;;;;;;;;5011563;28;20033;-73
2022/07/29 04:21:44;;;;;;;5.15;2.00;;;;;;;;;;5015480;28;20171;-73
2022/07/29 04:24:10;;;;;;;4.35;2.20;;;;;;;;;;5022917;28;20028;-73
2022/07/29 04:26:35;;;;;;;4.70;2.35;;;;;;;;;;5026656;28;20030;-73
2022/07/29 04:29:00;;;;;;;3.85;2.00;;;;;;;;;;5006894;28;20538;-73
2022/07/29 04:31:26;;;;;;;4.85;2.15;;;;;;;;;;5009923;28;20297;-73
2022/07/29 04:33:51;;;;;;;4.47;2.25;;;;;;;;;;5019559;28;20025;-73
2022/07/29 04:36:17;;;;;;;5.45;2.30;;;;;;;;;;5021253;28;20191;-73
2022/07/29 04:38:42;;;;;;;3.33;2.30;;;;;;;;;;5011291;28;20037;-73
2022/07/29 04:41:08;;;;;;;3.30;2.13;;;;;;;;;;5010323;28;20028;-73
2022/07/29 04:43:34;;;;;;;4.28;1.98;;;;;;;;;;5009908;28;20029;-73
2022/07/29 04:46:00;;;;;;;3.28;2.50;;;;;;;;;;5026191;28;20158;-73
2022/07/29 04:48:26;;;;;;;8.85;2.60;;;;;;;;;;5011743;28;20527;-73
2022/07/29 04:50:51;;;;;;;6.60;2.45;;;;;;;;;;5010720;28;20029;-73
2022/07/29 04:53:17;;;;;;;6.50;3.00;;;;;;;;;;5018369;28;20053;-73
2022/07/29 04:55:42;;;;;;;5.80;2.60;;;;;;;;;;5045406;22;20644;-72
2022/07/29 04:58:08;;;;;;;5.85;2.60;;;;;;;;;;5030692;28;20052;-71
2022/07/29 05:00:33;;;;;;;6.57;2.33;;;;;;;;;;5031131;28;20029;-71
2022/07/29 05:02:58;;;;;;;3.83;2.53;;;;;;;;;;5034411;28;20378;-71
2022/07/29 05:05:24;;;;;;;4.30;2.70;;;;;;;;;;5038540;28;20112;-71
2022/07/29 05:07:49;;;;;;;8.07;2.30;;;;;;;;;;5044059;28;20534;-70
2022/07/29 05:10:14;;;;;;;10.68;2.55;;;;;;;;;;5035049;28;20034;-71
2022/07/29 05:12:39;;;;;;;5.95;2.70;;;;;;;;;;5033228;28;20493;-71
2022/07/29 05:15:05;;;;;;;6.45;2.53;;;;;;;;;;5029506;28;20045;-70
2022/07/29 05:17:31;;;;;;;5.70;3.08;;;;;;;;;;5029977;28;20394;-70
2022/07/29 05:19:56;;;;;;;6.05;3.13;;;;;;;;;;5029679;28;20040;-71
2022/07/29 05:22:21;;;;;;;7.03;2.85;;;;;;;;;;5025868;28;20509;-71
2022/07/29 05:24:46;;;;;;;4.90;3.05;;;;;;;;;;5041490;28;20037;-71
2022/07/29 05:27:12;;;;;;;4.95;2.80;;;;;;;;;;5025472;28;20381;-71
2022/07/29 05:29:38;;;;;;;6.35;4.28;;;;;;;;;;5029465;28;20048;-71
2022/07/29 05:32:04;;;;;;;9.32;4.07;;;;;;;;;;5027454;28;20025;-72
2022/07/29 05:34:29;;;;;;;7.70;3.30;;;;;;;;;;5029555;28;20029;-72
2022/07/29 05:36:54;;;;;;;3.13;2.45;;;;;;;;;;5025326;28;20036;-72
2022/07/29 05:39:20;;;;;;;4.07;2.65;;;;;;;;;;5028598;28;20523;-72
2022/07/29 05:41:45;;;;;;;3.97;2.55;;;;;;;;;;5025046;28;20037;-72
2022/07/29 05:44:11;;;;;;;3.97;2.78;;;;;;;;;;5027656;28;20028;-72
2022/07/29 05:46:36;;;;;;;4.68;2.58;;;;;;;;;;5040862;28;20375;-72
2022/07/29 05:49:02;;;;;;;7.30;2.33;;;;;;;;;;5049388;28;20025;-72
2022/07/29 05:51:28;;;;;;;5.05;2.72;;;;;;;;;;5048940;28;20052;-72
2022/07/29 05:53:53;;;;;;;6.80;2.45;;;;;;;;;;5033335;28;20054;-72
2022/07/29 05:56:18;;;;;;;5.15;2.65;;;;;;;;;;5046854;28;20060;-72
2022/07/29 05:58:44;;;;;;;5.15;2.40;;;;;;;;;;5049287;28;20029;-72
2022/07/29 06:01:09;;;;;;;4.18;2.15;;;;;;;;;;5034825;28;20048;-72
2022/07/29 06:03:34;;;;;;;5.35;2.40;;;;;;;;;;5030102;28;20355;-72
2022/07/29 06:06:00;;;;;;;6.75;2.90;;;;;;;;;;5020280;28;20554;-72
2022/07/29 06:08:25;;;;;;;3.13;2.60;;;;;;;;;;5032140;28;20057;-72
2022/07/29 06:10:50;;;;;;;4.32;2.22;;;;;;;;;;5033817;28;20037;-72
2022/07/29 06:13:15;;;;;;;3.15;2.60;;;;;;;;;;5026723;28;20060;-72
2022/07/29 06:15:42;;;;;;;5.57;2.67;;;;;;;;;;5030969;28;20034;-72
2022/07/29 06:18:09;;;;;;;3.63;2.70;;;;;;;;;;5028624;28;20021;-71
2022/07/29 06:20:34;;;;;;;6.13;2.50;;;;;;;;;;5027991;28;20507;-72
2022/07/29 06:23:00;;;;;;;5.28;2.58;;;;;;;;;;5033980;28;20079;-72
2022/07/29 06:25:28;;;;;;;5.22;2.47;;;;;;;;;;5029420;28;20030;-72
2022/07/29 06:27:54;;;;;;;4.05;2.10;;;;;;;;;;5026083;28;20478;-72
2022/07/29 06:30:19;;;;;;;3.55;1.80;;;;;;;;;;5028625;28;20295;-72
2022/07/29 06:32:44;;;;;;;3.50;2.42;;;;;;;;;;5024598;28;20033;-72
2022/07/29 06:35:10;;;;;;;5.90;2.10;;;;;;;;;;5023527;28;20021;-72
2022/07/29 06:37:35;;;;;;;5.10;2.58;;;;;;;;;;5029224;28;20270;-72
2022/07/29 06:42:44;;;;;;;6.03;1.90;;;;;;;;;;5005927;28;20258;-72
2022/07/29 06:45:11;;;;;;;5.07;2.33;;;;;;;;;;5030843;28;20025;-72
2022/07/29 06:47:36;;;;;;;5.93;2.10;;;;;;;;;;5040584;28;20056;-72
2022/07/29 06:50:02;;;;;;;6.30;2.28;;;;;;;;;;5025701;28;20462;-72
2022/07/29 06:52:28;;;;;;;4.65;2.20;;;;;;;;;;5026602;28;20029;-72
2022/07/29 06:54:54;;;;;;;5.28;2.10;;;;;;;;;;5034528;28;20039;-72
2022/07/29 06:57:20;;;;;;;5.40;2.42;;;;;;;;;;5045968;28;20047;-72
2022/07/29 06:59:45;;;;;;;9.40;2.75;;;;;;;;;;5047930;28;20142;-71
2022/07/29 07:02:10;;;;;;;6.47;2.22;;;;;;;;;;5048675;28;20044;-71
2022/07/29 07:04:36;;;;;;;7.80;2.47;;;;;;;;;;5030196;28;20028;-71
2022/07/29 07:07:01;;;;;;;6.72;2.10;;;;;;;;;;5039532;28;20448;-72
2022/07/29 07:09:26;;;;;;;10.23;2.23;;;;;;;;;;5047597;28;20031;-72
2022/07/29 07:11:51;;;;;;;5.70;1.90;;;;;;;;;;5047939;28;20285;-71
2022/07/29 07:14:17;;;;;;;7.33;1.97;;;;;;;;;;5019877;28;20283;-71
2022/07/29 07:16:42;;;;;;;8.07;2.35;;;;;;;;;;5039265;28;20266;-73
2022/07/29 07:19:07;;;;;;;9.20;2.05;;;;;;;;;;5047816;28;20032;-72
2022/07/29 07:21:33;;;;;;;10.52;1.80;;;;;;;;;;5047441;28;20489;-70
2022/07/29 07:23:59;;;;;;;8.55;2.22;;;;;;;;;;5040161;28;20442;-70
2022/07/29 07:26:25;;;;;;;7.43;1.73;;;;;;;;;;5040315;28;20032;-71
2022/07/29 07:28:50;;;;;;;20.73;2.40;;;;;;;;;;5051960;28;20033;-71
2022/07/29 07:31:15;;;;;;;20.27;2.70;;;;;;;;;;5052022;28;20060;-71
2022/07/29 07:33:40;;;;;;;7.03;2.05;;;;;;;;;;5046541;28;20410;-69
2022/07/29 07:36:06;;;;;;;6.63;1.70;;;;;;;;;;5039608;28;20029;-70
2022/07/29 07:38:31;;;;;;;7.13;2.00;;;;;;;;;;5011354;28;20038;-70
2022/07/29 07:40:56;;;;;;;3.72;1.80;;;;;;;;;;5010192;28;20030;-70
2022/07/29 07:43:22;;;;;;;5.28;1.85;;;;;;;;;;5011406;28;20026;-70
2022/07/29 07:45:47;;;;;;;9.57;1.95;;;;;;;;;;5034696;28;20116;-70
2022/07/29 07:48:13;;;;;;;5.43;2.00;;;;;;;;;;5040232;28;20394;-71
2022/07/29 07:50:38;;;;;;;6.10;2.33;;;;;;;;;;5051233;28;20027;-71
2022/07/29 07:53:03;;;;;;;4.67;1.90;;;;;;;;;;5051622;28;20082;-71
2022/07/29 07:55:28;;;;;;;4.55;1.45;;;;;;;;;;5039362;28;20274;-71
2022/07/29 07:57:54;;;;;;;2.77;1.73;;;;;;;;;;5045719;28;20033;-70
2022/07/29 08:00:20;;;;;;;7.60;1.60;;;;;;;;;;5051061;28;20288;-71
2022/07/29 08:02:46;;;;;;;13.02;2.33;;;;;;;;;;5050835;28;20032;-72
2022/07/29 08:05:15;;;;;;;4.80;1.95;;;;;;;;;;5041412;28;20025;-70
2022/07/29 08:07:40;;;;;;;2.28;1.50;;;;;;;;;;5043970;28;20048;-71
2022/07/29 08:10:06;;;;;;;4.27;1.67;;;;;;;;;;5050418;28;20279;-71
2022/07/29 08:12:31;;;;;;;3.78;1.60;;;;;;;;;;5051166;28;20455;-70
2022/07/29 08:14:57;;;;;;;5.33;1.70;;;;;;;;;;5043004;28;20033;-71
2022/07/29 08:17:22;;;;;;;4.20;1.50;;;;;;;;;;5042057;28;20304;-71
2022/07/29 08:19:48;;;;;;;5.95;1.58;;;;;;;;;;5039627;28;20029;-71
2022/07/29 08:22:13;;;;;;;2.75;1.52;;;;;;;;;;5048197;28;20025;-71
2022/07/29 08:24:55;;;;;;;2.53;1.60;;;;;;;;;;5035677;28;20707;-70
2022/07/29 08:27:21;;;;;;;3.10;1.60;;;;;;;;;;5020326;28;20404;-71
2022/07/29 08:29:47;;;;;;;2.85;1.40;;;;;;;;;;5028647;28;20039;-72
2022/07/29 08:32:12;;;;;;;3.35;1.88;;;;;;;;;;5023695;28;20479;-72
2022/07/29 08:34:38;;;;;;;3.57;1.50;;;;;;;;;;5033873;28;20102;-72
2022/07/29 08:37:03;;;;;;;5.53;1.42;;;;;;;;;;5042130;28;20642;-71
2022/07/29 08:39:28;;;;;;;3.33;1.40;;;;;;;;;;5030396;28;20045;-71
2022/07/29 08:41:54;;;;;;;5.17;1.50;;;;;;;;;;5030571;28;20532;-72
2022/07/29 08:44:21;;;;;;;3.55;1.67;;;;;;;;;;5031121;28;20671;-71
2022/07/29 08:46:47;;;;;;;2.60;1.50;;;;;;;;;;5041815;28;20029;-73
2022/07/29 08:49:12;;;;;;;3.55;1.73;;;;;;;;;;5050414;28;20082;-72
2022/07/29 08:51:39;;;;;;;3.22;1.60;;;;;;;;;;5050371;28;20032;-72
2022/07/29 08:54:05;;;;;;;6.75;1.80;;;;;;;;;;5041722;28;20083;-72
2022/07/29 08:56:31;;;;;;;4.47;1.60;;;;;;;;;;5041434;28;20290;-71
2022/07/29 08:58:58;;;;;;;5.05;1.70;;;;;;;;;;5049638;28;20037;-71
2022/07/29 09:01:27;;;;;;;4.15;1.65;;;;;;;;;;5049848;28;20097;-71
2022/07/29 09:03:55;;;;;;;2.95;1.70;;;;;;;;;;5044033;28;20401;-72
2022/07/29 09:06:21;;;;;;;3.67;1.75;;;;;;;;;;5041330;28;20466;-72
2022/07/29 09:08:47;;;;;;;3.38;1.60;;;;;;;;;;5049990;28;20029;-71
2022/07/29 09:11:13;;;;;;;3.92;1.70;;;;;;;;;;5049533;28;20029;-71
2022/07/29 09:13:39;;;;;;;3.58;1.60;;;;;;;;;;5044386;28;20462;-70
2022/07/29 09:16:04;;;;;;;4.43;1.80;;;;;;;;;;5041113;28;20060;-71
2022/07/29 09:18:40;;;;;;;2.45;1.83;;;;;;;;;;5049932;28;20055;-71
2022/07/29 09:24:10;;;;;;;2.28;1.63;;;;;;;;;;5044725;28;20102;-71
2022/07/29 09:26:38;;;;;;;6.88;1.80;;;;;;;;;;5033895;28;20036;-70
2022/07/29 09:29:18;;;;;;;5.47;1.80;;;;;;;;;;5049671;28;20116;-71
2022/07/29 09:31:46;;;;;;;3.50;1.77;;;;;;;;;;5049273;28;20025;-71
2022/07/29 09:34:13;;;;;;;2.45;1.85;;;;;;;;;;5042926;28;20067;-72
2022/07/29 09:36:40;;;;;;;6.80;1.75;;;;;;;;;;5041328;28;20037;-70
2022/07/29 09:39:05;;;;;;;3.08;1.60;;;;;;;;;;5049611;28;20060;-72
2022/07/29 09:41:48;;;;;;;5.00;1.90;;;;;;;;;;5040000;28;20073;-69
2022/07/29 09:44:14;;;;;;;5.07;1.80;;;;;;;;;;5043139;28;20066;-69
2022/07/29 09:46:41;;;;;;;3.25;1.73;;;;;;;;;;5029807;28;20486;-71
2022/07/29 09:49:12;;;;;;;2.42;1.40;;;;;;;;;;5048936;28;20144;-72
2022/07/29 09:51:38;;;;;;;3.92;1.60;;;;;;;;;;5039544;28;20045;-73
2022/07/29 09:54:26;;;;;;;3.22;1.67;;;;;;;;;;5027380;28;20036;-72
2022/07/29 09:56:52;;;;;;;2.72;1.80;;;;;;;;;;5021143;28;20104;-71
2022/07/29 09:59:20;;;;;;;1.45;1.30;;;;;;;;;;5030912;28;20398;-71
2022/07/29 10:01:45;;;;;;;4.65;1.70;;;;;;;;;;5028081;28;20441;-70
2022/07/29 10:04:11;;;;;;;5.07;1.90;;;;;;;;;;5038294;28;20127;-72
2022/07/29 10:06:56;;;;;;;2.53;1.50;;;;;;;;;;5049031;28;20534;-70
2022/07/29 10:09:21;;;;;;;5.05;1.63;;;;;;;;;;5049125;28;20032;-68
2022/07/29 10:12:03;;;;;;;4.37;1.70;;;;;;;;;;5042344;28;20033;-69
2022/07/29 10:14:30;;;;;;;5.60;1.73;;;;;;;;;;5040518;28;20264;-71
2022/07/29 10:16:56;;;;;;;5.70;1.50;;;;;;;;;;5048887;28;20029;-71
2022/07/29 10:19:22;;;;;;;5.97;1.48;;;;;;;;;;5049028;28;20040;-71
2022/07/29 10:21:47;;;;;;;2.75;1.58;;;;;;;;;;5041769;28;20025;-70
2022/07/29 10:24:13;;;;;;;2.20;1.48;;;;;;;;;;5037685;28;20642;-70
2022/07/29 10:26:40;;;;;;;3.47;1.50;;;;;;;;;;5043987;28;20044;-70
2022/07/29 10:29:05;;;;;;;3.83;1.33;;;;;;;;;;5032800;28;20068;-69
2022/07/29 10:31:47;;;;;;;3.00;1.73;;;;;;;;;;5025681;28;20057;-70
2022/07/29 10:34:52;;;;;;;2.72;1.50;;;;;;;;;;5036614;28;20030;-71
2022/07/29 10:37:35;;;;;;;1.40;1.30;;;;;;;;;;5048194;28;20028;-68
2022/07/29 10:43:14;;;;;;;2.72;1.27;;;;;;;;;;5009071;28;20556;-69
2022/07/29 10:45:39;;;;;;;2.40;1.30;;;;;;;;;;5008178;28;20029;-69
2022/07/29 10:48:08;;;;;;;4.38;1.40;;;;;;;;;;5008847;28;20034;-69
2022/07/29 10:50:58;;;;;;;3.55;1.40;;;;;;;;;;5028312;28;20040;-68
2022/07/29 10:53:25;;;;;;;4.43;2.13;;;;;;;;;;5028135;28;20030;-68
2022/07/29 10:58:23;;;;;;;3.78;1.40;;;;;;;;;;5024701;22;20057;-75
2022/07/29 11:00:50;;;;;;;3.53;1.55;;;;;;;;;;5001927;28;20029;-74
2022/07/29 11:03:40;;;;;;;3.50;1.50;;;;;;;;;;5026640;28;20509;-73
2022/07/29 11:06:05;;;;;;;3.75;1.52;;;;;;;;;;5026495;28;20621;-73
2022/07/29 11:08:31;;;;;;;2.92;1.60;;;;;;;;;;5027728;28;20053;-72
2022/07/29 11:11:19;;;;;;;2.60;1.48;;;;;;;;;;5020088;28;20390;-70
2022/07/29 11:13:47;;;;;;;5.97;1.63;;;;;;;;;;5011991;28;20038;-69
2022/07/29 11:16:14;;;;;;;2.53;1.42;;;;;;;;;;5025412;28;20029;-68
2022/07/29 11:19:11;;;;;;;4.07;1.60;;;;;;;;;;5022140;28;20124;-69
2022/07/29 11:21:39;;;;;;;1.67;1.40;;;;;;;;;;4961831;28;20047;-68
2022/07/29 11:24:15;;;;;;;3.50;1.70;;;;;;;;;;5006455;28;20029;-68
2022/07/29 11:26:41;;;;;;;2.40;1.42;;;;;;;;;;5014550;28;20045;-68
2022/07/29 11:29:18;;;;;;;5.15;1.60;;;;;;;;;;5028035;28;20029;-68
2022/07/29 11:31:48;;;;;;;2.85;1.65;;;;;;;;;;5017184;28;20022;-68
2022/07/29 11:34:22;;;;;;;4.68;1.85;;;;;;;;;;5025582;28;20124;-68
2022/07/29 11:37:06;;;;;;;4.78;1.90;;;;;;;;;;5023851;28;20449;-68
2022/07/29 11:39:36;;;;;;;3.05;1.77;;;;;;;;;;5007928;28;20633;-68
2022/07/29 11:42:16;;;;;;;2.92;1.75;;;;;;;;;;5008543;28;20388;-68
2022/07/29 11:45:00;;;;;;;3.65;1.95;;;;;;;;;;5008046;28;20403;-67
2022/07/29 11:47:27;;;;;;;4.20;1.80;;;;;;;;;;5008160;28;20022;-67
2022/07/29 11:49:53;;;;;;;4.80;1.77;;;;;;;;;;5008150;28;20474;-67
2022/07/29 11:52:19;;;;;;;5.22;1.55;;;;;;;;;;5010606;28;20033;-68
2022/07/29 11:54:47;;;;;;;4.50;1.35;;;;;;;;;;5021376;28;20029;-69
2022/07/29 11:57:14;;;;;;;4.63;1.90;;;;;;;;;;5027680;28;20037;-67
2022/07/29 11:59:44;;;;;;;2.75;1.55;;;;;;;;;;5027865;28;20025;-67
2022/07/29 12:02:10;;;;;;;2.50;1.55;;;;;;;;;;5027910;28;20514;-67
2022/07/29 12:04:48;;;;;;;2.75;1.40;;;;;;;;;;5026888;28;20033;-69
2022/07/29 12:07:13;;;;;;;2.78;1.83;;;;;;;;;;5013317;28;20551;-68
2022/07/29 12:09:39;;;;;;;2.35;1.70;;;;;;;;;;5019090;28;20112;-69
2022/07/29 12:12:04;;;;;;;3.30;1.67;;;;;;;;;;5029388;28;20479;-67
2022/07/29 12:14:32;;;;;;;1.80;1.70;;;;;;;;;;5031639;28;20052;-72
2022/07/29 12:16:59;;;;;;;3.30;1.63;;;;;;;;;;5031069;28;20033;-68
2022/07/29 12:19:24;;;;;;;4.07;1.80;;;;;;;;;;5025610;28;20025;-68
2022/07/29 12:21:51;;;;;;;4.88;1.73;;;;;;;;;;5022847;28;20025;-68
2022/07/29 12:24:18;;;;;;;2.50;1.40;;;;;;;;;;5027569;28;20029;-69
2022/07/29 12:26:55;;;;;;;3.58;1.52;;;;;;;;;;5017932;28;20035;-69
2022/07/29 12:29:21;;;;;;;3.75;1.40;;;;;;;;;;5029405;28;20033;-68
2022/07/29 12:31:53;;;;;;;3.15;1.67;;;;;;;;;;5030810;28;20029;-71
2022/07/29 12:34:19;;;;;;;3.92;1.70;;;;;;;;;;5031085;28;20025;-70
2022/07/29 12:36:44;;;;;;;4.13;1.90;;;;;;;;;;5021191;28;20084;-70
2022/07/29 12:39:11;;;;;;;2.65;1.70;;;;;;;;;;5027789;28;20052;-70
2022/07/29 12:41:37;;;;;;;4.55;1.70;;;;;;;;;;5030593;28;20091;-68
2022/07/29 12:44:02;;;;;;;3.13;1.70;;;;;;;;;;5030282;28;20026;-69
2022/07/29 12:46:27;;;;;;;2.60;1.48;;;;;;;;;;5030535;28;20033;-69
2022/07/29 12:48:54;;;;;;;3.03;2.10;;;;;;;;;;5030855;28;20041;-69
2022/07/29 12:51:33;;;;;;;6.38;2.00;;;;;;;;;;5022434;28;20271;-70
2022/07/29 12:54:08;;;;;;;3.35;1.80;;;;;;;;;;5022329;28;20026;-71
2022/07/29 12:56:33;;;;;;;2.03;1.63;;;;;;;;;;5030136;28;20029;-69
2022/07/29 12:58:59;;;;;;;2.67;1.42;;;;;;;;;;5030512;28;20043;-68
2022/07/29 13:01:27;;;;;;;2.40;1.50;;;;;;;;;;5030046;28;20048;-70
2022/07/29 13:03:59;;;;;;;3.78;1.80;;;;;;;;;;5030296;28;20030;-69
2022/07/29 13:06:41;;;;;;;4.43;2.40;;;;;;;;;;5018221;28;20065;-68
2022/07/29 13:09:16;;;;;;;3.75;1.70;;;;;;;;;;5027156;28;20433;-69
2022/07/29 13:11:44;;;;;;;6.43;1.60;;;;;;;;;;5030194;28;20040;-70
2022/07/29 13:14:11;;;;;;;2.20;1.63;;;;;;;;;;5030240;28;20021;-69
2022/07/29 13:17:00;;;;;;;4.63;1.80;;;;;;;;;;5030059;28;20037;-69
2022/07/29 13:19:34;;;;;;;4.63;1.77;;;;;;;;;;5021014;28;20446;-71
2022/07/29 13:21:59;;;;;;;1.98;1.80;;;;;;;;;;5021773;28;20036;-73
2022/07/29 13:24:24;;;;;;;2.70;1.75;;;;;;;;;;5010876;28;20387;-73
2022/07/29 13:26:51;;;;;;;3.37;2.00;;;;;;;;;;5030083;28;20040;-72
2022/07/29 13:29:17;;;;;;;3.58;2.10;;;;;;;;;;5029852;28;20263;-73
2022/07/29 13:31:42;;;;;;;3.50;1.67;;;;;;;;;;5029649;28;20039;-73
2022/07/29 13:34:07;;;;;;;2.50;1.63;;;;;;;;;;5005345;28;20029;-73
2022/07/29 13:36:32;;;;;;;2.53;1.60;;;;;;;;;;5023444;28;20302;-72
2022/07/29 13:38:58;;;;;;;2.47;1.80;;;;;;;;;;5025192;28;20262;-71
2022/07/29 13:41:23;;;;;;;3.78;1.58;;;;;;;;;;5018794;28;20061;-72
2022/07/29 13:43:48;;;;;;;2.70;1.70;;;;;;;;;;5023593;28;20033;-73
2022/07/29 13:46:13;;;;;;;2.17;1.50;;;;;;;;;;5029388;28;20025;-71
2022/07/29 13:48:39;;;;;;;2.00;1.60;;;;;;;;;;5029343;28;20968;-70
2022/07/29 13:51:04;;;;;;;3.03;1.60;;;;;;;;;;5029421;28;20269;-70
2022/07/29 13:53:29;;;;;;;4.17;1.83;;;;;;;;;;5027290;28;20021;-70
2022/07/29 13:55:55;;;;;;;2.35;1.60;;;;;;;;;;5017612;28;20259;-71
2022/07/29 13:58:20;;;;;;;3.80;1.63;;;;;;;;;;5027772;28;20017;-69
2022/07/29 14:00:46;;;;;;;2.80;1.70;;;;;;;;;;5028675;28;20083;-70
2022/07/29 14:03:11;;;;;;;4.25;1.77;;;;;;;;;;5007799;28;20285;-70
2022/07/29 14:05:37;;;;;;;1.70;1.60;;;;;;;;;;5009199;28;20387;-69
2022/07/29 14:08:02;;;;;;;2.70;1.67;;;;;;;;;;5009181;28;20037;-69
2022/07/29 14:10:27;;;;;;;2.83;1.75;;;;;;;;;;5008101;28;20182;-70
2022/07/29 14:12:53;;;;;;;1.48;1.38;;;;;;;;;;5020587;28;20038;-70
2022/07/29 14:15:18;;;;;;;3.03;1.63;;;;;;;;;;5028839;28;20018;-69
2022/07/29 14:17:43;;;;;;;3.13;1.63;;;;;;;;;;5028586;28;20440;-73
2022/07/29 14:20:09;;;;;;;2.33;1.40;;;;;;;;;;5028655;28;20489;-70
2022/07/29 14:22:34;;;;;;;3.55;1.77;;;;;;;;;;5028992;28;20030;-73
2022/07/29 14:25:00;;;;;;;3.03;1.67;;;;;;;;;;5024347;28;20348;-69
2022/07/29 14:27:25;;;;;;;5.63;1.50;;;;;;;;;;5020291;28;20025;-68
2022/07/29 14:29:50;;;;;;;2.55;1.30;;;;;;;;;;5028278;28;20137;-70
2022/07/29 14:32:16;;;;;;;3.35;1.60;;;;;;;;;;5028767;28;20486;-72
2022/07/29 14:34:41;;;;;;;2.80;1.48;;;;;;;;;;5028425;28;20510;-70
2022/07/29 14:37:06;;;;;;;7.43;1.90;;;;;;;;;;5028550;28;20454;-70
2022/07/29 14:39:33;;;;;;;5.28;1.88;;;;;;;;;;5023867;28;20033;-71
2022/07/29 14:41:58;;;;;;;2.47;1.30;;;;;;;;;;5015298;28;20049;-70
2022/07/29 14:44:26;;;;;;;3.08;1.50;;;;;;;;;;5027362;28;20017;-70
2022/07/29 14:46:51;;;;;;;2.72;1.60;;;;;;;;;;5028179;28;20217;-69
2022/07/29 14:49:16;;;;;;;1.83;1.50;;;;;;;;;;5028233;28;20036;-72
2022/07/29 14:51:42;;;;;;;2.43;1.57;;;;;;;;;;5028094;28;20029;-70
2022/07/29 14:54:07;;;;;;;2.35;1.45;;;;;;;;;;5026081;28;20569;-70
2022/07/29 14:56:32;;;;;;;4.47;1.42;;;;;;;;;;5019807;28;20041;-72
2022/07/29 14:58:58;;;;;;;1.63;1.40;;;;;;;;;;5021879;28;20479;-70
2022/07/29 15:01:24;;;;;;;1.80;1.58;;;;;;;;;;5008375;28;20057;-74
2022/07/29 15:03:50;;;;;;;4.45;1.75;;;;;;;;;;5008939;28;20026;-73